createdAt,value
2018-12-12T00:02:11.754Z,95.90
2018-12-12T00:04:51.205Z,95.18
2018-12-12T00:07:27.497Z,95.38
2018-12-12T00:09:59.915Z,95.48
2018-12-12T00:12:36.170Z,94.92
2018-12-12T00:15:02.704Z,95.38
2018-12-12T00:17:39.660Z,96.03
2018-12-12T00:20:14.463Z,95.77
2018-12-12T00:22:47.467Z,95.55
2018-12-12T00:25:20.334Z,95.50
2018-12-12T00:27:56.368Z,95.89
2018-12-12T00:30:33.143Z,95.38
2018-12-12T00:33:07.871Z,95.30
2018-12-12T00:35:43.920Z,95.21
2018-12-12T00:38:18.787Z,95.16
2018-12-12T00:40:55.466Z,95.84
2018-12-12T00:43:27.580Z,95.89
2018-12-12T00:46:07.228Z,95.44
2018-12-12T00:48:41.375Z,95.40
2018-12-12T00:51:16.317Z,95.67
2018-12-12T00:53:53.189Z,95.22
2018-12-12T00:56:27.954Z,95.42
2018-12-12T00:59:02.969Z,95.04
2018-12-12T01:01:37.624Z,95.15
2018-12-12T01:04:09.700Z,95.57
2018-12-12T01:06:42.624Z,96.21
2018-12-12T01:09:19.298Z,95.64
2018-12-12T01:12:02.259Z,95.65
2018-12-12T01:14:34.282Z,96.03
2018-12-12T01:17:10.363Z,95.29
2018-12-12T01:19:49.285Z,95.03
2018-12-12T01:22:28.153Z,94.70
2018-12-12T01:25:04.390Z,94.75
2018-12-12T01:27:37.060Z,95.28
2018-12-12T01:30:12.088Z,94.57
2018-12-12T01:32:47.038Z,94.64
2018-12-12T01:35:20.008Z,95.42
2018-12-12T01:37:56.150Z,94.97
2018-12-12T01:40:35.818Z,94.85
2018-12-12T01:43:08.615Z,95.60
2018-12-12T01:45:41.608Z,95.48
2018-12-12T01:50:52.203Z,95.23
2018-12-12T01:53:24.363Z,95.25
2018-12-12T01:55:56.963Z,94.82
2018-12-12T01:58:31.624Z,95.53
2018-12-12T02:01:11.296Z,94.86
2018-12-12T02:03:45.296Z,95.40
2018-12-12T02:06:18.452Z,95.35
2018-12-12T02:08:55.401Z,95.50
2018-12-12T02:11:30.299Z,95.76
2018-12-12T02:14:06.462Z,95.47
2018-12-12T02:16:39.148Z,95.38
2018-12-12T02:19:13.961Z,94.89
2018-12-12T02:21:46.801Z,94.69
2018-12-12T02:24:23.538Z,94.78
2018-12-12T02:26:53.596Z,94.75
2018-12-12T02:29:25.578Z,94.69
2018-12-12T02:31:59.562Z,95.23
2018-12-12T02:34:32.463Z,94.54
2018-12-12T02:37:06.494Z,94.74
2018-12-12T02:39:41.428Z,94.41
2018-12-12T02:42:11.651Z,94.60
2018-12-12T02:44:44.274Z,94.97
2018-12-12T02:47:21.132Z,94.57
2018-12-12T02:52:25.212Z,94.45
2018-12-12T02:54:57.935Z,95.03
2018-12-12T02:57:32.925Z,94.60
2018-12-12T03:00:07.903Z,95.20
2018-12-12T03:02:40.603Z,94.47
2018-12-12T03:05:17.291Z,94.83
2018-12-12T03:07:54.236Z,94.47
2018-12-12T03:10:30.421Z,94.86
2018-12-12T03:13:07.288Z,94.35
2018-12-12T03:15:39.387Z,94.01
2018-12-12T03:18:12.218Z,94.47
2018-12-12T03:20:44.927Z,94.84
2018-12-12T03:23:17.740Z,94.51
2018-12-12T03:25:47.804Z,94.76
2018-12-12T03:28:22.386Z,94.53
2018-12-12T03:30:55.350Z,94.37
2018-12-12T03:33:30.286Z,94.87
2018-12-12T03:36:02.442Z,94.25
2018-12-12T03:38:38.409Z,93.89
2018-12-12T03:41:10.795Z,94.27
2018-12-12T03:43:42.976Z,94.16
2018-12-12T03:46:15.824Z,94.37
2018-12-12T03:48:49.730Z,94.36
2018-12-12T03:51:22.529Z,94.13
2018-12-12T03:53:57.343Z,94.10
2018-12-12T03:56:33.433Z,94.00
2018-12-12T03:59:09.527Z,93.65
2018-12-12T04:01:42.384Z,93.82
2018-12-12T04:04:17.195Z,94.06
2018-12-12T04:06:51.828Z,94.43
2018-12-12T04:09:25.655Z,94.17
2018-12-12T04:11:57.636Z,93.56
2018-12-12T04:14:34.681Z,93.30
2018-12-12T04:17:07.639Z,93.55
2018-12-12T04:19:44.449Z,94.21
2018-12-12T04:22:16.632Z,93.65
2018-12-12T04:24:51.857Z,93.94
2018-12-12T04:27:25.686Z,93.90
2018-12-12T04:29:57.763Z,93.85
2018-12-12T04:32:30.645Z,93.68
2018-12-12T04:35:03.476Z,93.71
2018-12-12T04:37:36.335Z,94.44
2018-12-12T04:40:13.079Z,94.31
2018-12-12T04:42:48.168Z,93.88
2018-12-12T04:45:23.143Z,93.80
2018-12-12T04:47:57.236Z,94.12
2018-12-12T04:50:29.407Z,93.42
2018-12-12T04:53:08.391Z,93.73
2018-12-12T04:55:41.361Z,93.15
2018-12-12T04:58:16.358Z,93.24
2018-12-12T05:00:51.963Z,93.89
2018-12-12T05:03:28.170Z,93.53
2018-12-12T05:05:58.349Z,94.06
2018-12-12T05:08:34.317Z,94.04
2018-12-12T05:11:07.302Z,94.00
2018-12-12T05:13:39.385Z,94.15
2018-12-12T05:16:12.110Z,93.75
2018-12-12T05:18:44.891Z,93.83
2018-12-12T05:21:24.477Z,94.26
2018-12-12T05:24:00.570Z,93.99
2018-12-12T05:26:39.408Z,93.65
2018-12-12T05:29:15.698Z,93.89
2018-12-12T05:31:51.873Z,93.82
2018-12-12T05:34:28.904Z,93.75
2018-12-12T05:37:01.595Z,93.33
2018-12-12T05:39:38.212Z,93.69
2018-12-12T05:42:10.227Z,93.70
2018-12-12T05:44:47.163Z,93.33
2018-12-12T05:47:21.365Z,93.18
2018-12-12T05:49:58.339Z,93.21
2018-12-12T05:52:37.696Z,93.00
2018-12-12T05:55:14.070Z,93.53
2018-12-12T05:57:46.823Z,93.60
2018-12-12T06:00:22.879Z,93.68
2018-12-12T06:02:57.811Z,93.68
2018-12-12T06:05:33.875Z,93.38
2018-12-12T06:08:05.873Z,93.56
2018-12-12T06:10:38.316Z,93.96
2018-12-12T06:13:14.560Z,93.84
2018-12-12T06:15:50.714Z,93.98
2018-12-12T06:18:22.959Z,93.59
2018-12-12T06:20:55.784Z,93.24
2018-12-12T06:23:30.598Z,92.96
2018-12-12T06:26:00.645Z,92.94
2018-12-12T06:28:37.316Z,92.59
2018-12-12T06:31:17.069Z,92.28
2018-12-12T06:33:53.384Z,92.40
2018-12-12T06:36:28.337Z,92.98
2018-12-12T06:39:01.024Z,92.79
2018-12-12T06:41:35.860Z,92.75
2018-12-12T06:44:08.544Z,93.09
2018-12-12T06:46:45.526Z,92.59
2018-12-12T06:49:18.206Z,93.33
2018-12-12T06:51:54.599Z,93.00
2018-12-12T06:54:34.009Z,92.72
2018-12-12T06:57:10.096Z,92.84
2018-12-12T06:59:46.283Z,92.28
2018-12-12T07:02:21.013Z,92.38
2018-12-12T07:04:53.511Z,92.25
2018-12-12T07:07:28.681Z,92.15
2018-12-12T07:10:05.221Z,92.51
2018-12-12T07:12:40.067Z,92.31
2018-12-12T07:15:13.055Z,92.24
2018-12-12T07:17:49.111Z,92.48
2018-12-12T07:20:21.970Z,92.27
2018-12-12T07:22:56.593Z,92.31
2018-12-12T07:25:29.571Z,92.66
2018-12-12T07:28:02.483Z,92.39
2018-12-12T07:30:35.417Z,92.52
2018-12-12T07:33:10.349Z,92.22
2018-12-12T07:35:43.151Z,92.23
2018-12-12T07:38:19.188Z,91.70
2018-12-12T07:40:52.018Z,92.00
2018-12-12T07:43:22.218Z,91.61
2018-12-12T07:45:57.144Z,91.90
2018-12-12T07:48:29.138Z,91.41
2018-12-12T07:51:04.009Z,91.92
2018-12-12T07:53:40.267Z,91.97
2018-12-12T07:56:16.479Z,91.91
2018-12-12T07:58:49.316Z,91.95
2018-12-12T08:01:22.015Z,92.01
2018-12-12T08:03:54.776Z,92.12
2018-12-12T08:06:29.641Z,92.31
2018-12-12T08:09:03.742Z,92.07
2018-12-12T08:11:38.329Z,91.65
2018-12-12T08:14:11.327Z,91.81
2018-12-12T08:16:47.433Z,92.19
2018-12-12T08:19:23.665Z,91.75
2018-12-12T08:21:56.223Z,91.71
2018-12-12T08:24:35.985Z,92.05
2018-12-12T08:27:12.135Z,91.59
2018-12-12T08:29:42.263Z,91.81
2018-12-12T08:32:15.285Z,91.88
2018-12-12T08:34:48.202Z,91.63
2018-12-12T08:37:20.984Z,91.99
2018-12-12T08:39:53.828Z,92.06
2018-12-12T08:42:29.947Z,92.03
2018-12-12T08:45:05.063Z,92.10
2018-12-12T08:47:39.816Z,92.01
2018-12-12T08:50:16.021Z,92.30
2018-12-12T08:52:48.088Z,92.28
2018-12-12T08:55:24.977Z,92.28
2018-12-12T08:57:57.823Z,91.90
2018-12-12T09:03:05.901Z,92.18
2018-12-12T09:05:41.916Z,92.42
2018-12-12T09:08:16.796Z,92.10
2018-12-12T09:10:53.415Z,92.25
2018-12-12T09:13:29.557Z,92.34
2018-12-12T09:16:06.074Z,91.87
2018-12-12T09:18:38.992Z,92.16
2018-12-12T09:21:11.768Z,91.47
2018-12-12T09:23:48.469Z,91.52
2018-12-12T09:26:21.441Z,92.03
2018-12-12T09:28:56.322Z,91.95
2018-12-12T09:31:35.201Z,92.17
2018-12-12T09:34:10.079Z,91.78
2018-12-12T09:36:46.246Z,92.12
2018-12-12T09:39:20.944Z,92.56
2018-12-12T09:41:55.783Z,92.82
2018-12-12T09:44:32.715Z,92.45
2018-12-12T09:47:07.405Z,92.22
2018-12-12T09:49:42.285Z,92.10
2018-12-12T09:52:17.085Z,92.08
2018-12-12T09:54:51.866Z,92.34
2018-12-12T09:57:24.636Z,92.28
2018-12-12T10:00:00.855Z,92.19
2018-12-12T10:02:33.685Z,91.83
2018-12-12T10:05:06.315Z,91.71
2018-12-12T10:07:41.102Z,91.87
2018-12-12T10:10:14.119Z,92.16
2018-12-12T10:12:47.004Z,92.41
2018-12-12T10:15:19.911Z,92.25
2018-12-12T10:17:54.659Z,92.24
2018-12-12T10:20:33.555Z,92.09
2018-12-12T10:23:09.462Z,91.93
2018-12-12T10:25:42.648Z,92.07
2018-12-12T10:28:15.609Z,92.08
2018-12-12T10:30:52.449Z,92.19
2018-12-12T10:33:28.513Z,92.01
2018-12-12T10:36:01.665Z,92.15
2018-12-12T10:38:34.587Z,92.19
2018-12-12T10:41:10.632Z,92.37
2018-12-12T10:43:46.775Z,92.41
2018-12-12T10:46:21.725Z,92.83
2018-12-12T10:48:57.799Z,92.53
2018-12-12T10:51:34.589Z,92.55
2018-12-12T10:54:10.643Z,92.54
2018-12-12T10:56:46.796Z,92.72
2018-12-12T10:59:22.838Z,92.43
2018-12-12T11:02:05.014Z,92.44
2018-12-12T11:04:37.785Z,92.14
2018-12-12T11:07:10.745Z,92.53
2018-12-12T11:09:47.610Z,92.71
2018-12-12T11:12:24.444Z,92.29
2018-12-12T11:14:59.041Z,92.45
2018-12-12T11:17:33.719Z,91.88
2018-12-12T11:20:05.828Z,91.88
2018-12-12T11:22:40.542Z,92.37
2018-12-12T11:25:17.442Z,92.43
2018-12-12T11:27:54.366Z,92.62
2018-12-12T11:30:24.409Z,92.53
2018-12-12T11:33:01.274Z,92.20
2018-12-12T11:35:34.047Z,91.99
2018-12-12T11:38:06.926Z,91.90
2018-12-12T11:40:43.082Z,92.15
2018-12-12T11:43:16.103Z,92.46
2018-12-12T11:45:49.540Z,91.87
2018-12-12T11:48:21.737Z,92.33
2018-12-12T11:50:54.486Z,92.50
2018-12-12T11:53:27.150Z,92.37
2018-12-12T11:56:00.021Z,92.26
2018-12-12T11:58:36.924Z,92.13
2018-12-12T12:01:10.012Z,91.97
2018-12-12T12:03:44.920Z,92.00
2018-12-12T12:06:17.789Z,91.85
2018-12-12T12:08:54.003Z,92.02
2018-12-12T12:11:28.804Z,91.83
2018-12-12T12:14:01.801Z,92.10
2018-12-12T12:16:34.525Z,91.80
2018-12-12T12:19:08.591Z,92.36
2018-12-12T12:21:41.414Z,92.03
2018-12-12T12:24:16.091Z,91.63
2018-12-12T12:26:48.127Z,91.92
2018-12-12T12:29:20.922Z,91.90
2018-12-12T12:31:55.876Z,91.64
2018-12-12T12:34:28.926Z,92.30
2018-12-12T12:37:01.544Z,92.26
2018-12-12T12:39:37.936Z,91.44
2018-12-12T12:42:11.833Z,91.86
2018-12-12T12:44:44.168Z,91.79
2018-12-12T12:47:17.005Z,91.64
2018-12-12T12:49:53.593Z,92.08
2018-12-12T12:52:32.476Z,91.87
2018-12-12T12:55:08.672Z,92.55
2018-12-12T12:57:45.463Z,92.11
2018-12-12T13:00:17.572Z,91.69
2018-12-12T13:02:49.948Z,92.20
2018-12-12T13:05:22.660Z,92.82
2018-12-12T13:07:55.589Z,92.58
2018-12-12T13:10:27.860Z,92.40
2018-12-12T13:13:00.646Z,92.10
2018-12-12T13:15:34.829Z,91.30
2018-12-12T13:18:09.683Z,91.52
2018-12-12T13:20:42.249Z,91.16
2018-12-12T13:23:17.177Z,91.05
2018-12-12T13:25:49.871Z,91.01
2018-12-12T13:28:26.924Z,91.23
2018-12-12T13:31:01.793Z,90.77
2018-12-12T13:33:34.403Z,91.20
2018-12-12T13:36:06.420Z,91.38
2018-12-12T13:38:42.726Z,90.98
2018-12-12T13:41:15.532Z,90.65
2018-12-12T13:43:50.535Z,90.75
2018-12-12T13:46:30.099Z,90.61
2018-12-12T13:49:02.833Z,91.01
2018-12-12T13:51:39.774Z,90.96
2018-12-12T13:54:12.048Z,90.98
2018-12-12T13:56:48.199Z,91.01
2018-12-12T13:59:24.592Z,90.87
2018-12-12T14:01:57.387Z,91.26
2018-12-12T14:04:31.464Z,91.11
2018-12-12T14:07:06.323Z,90.75
2018-12-12T14:09:41.203Z,90.53
2018-12-12T14:12:17.828Z,90.29
2018-12-12T14:14:50.739Z,90.00
2018-12-12T14:17:27.695Z,90.00
2018-12-12T14:20:07.465Z,90.08
2018-12-12T14:22:39.457Z,90.14
2018-12-12T14:25:15.524Z,89.82
2018-12-12T14:27:50.420Z,90.02
2018-12-12T14:30:23.285Z,89.91
2018-12-12T14:32:56.257Z,89.55
2018-12-12T14:35:29.112Z,89.56
2018-12-12T14:38:02.246Z,90.01
2018-12-12T14:40:36.993Z,89.46
2018-12-12T14:43:13.839Z,89.96
2018-12-12T14:45:46.712Z,89.42
2018-12-12T14:48:21.629Z,89.85
2018-12-12T14:50:57.962Z,90.11
2018-12-12T14:53:30.917Z,89.85
2018-12-12T14:56:03.960Z,89.98
2018-12-12T14:58:36.733Z,89.85
2018-12-12T15:01:08.824Z,89.87
2018-12-12T15:03:41.519Z,90.09
2018-12-12T15:06:16.431Z,90.31
2018-12-12T15:08:49.191Z,89.71
2018-12-12T15:11:24.091Z,89.73
2018-12-12T15:13:58.686Z,90.06
2018-12-12T15:16:38.429Z,89.88
2018-12-12T15:19:11.697Z,89.52
2018-12-12T15:21:46.374Z,89.53
2018-12-12T15:24:19.087Z,89.86
2018-12-12T15:26:51.382Z,89.72
2018-12-12T15:29:31.268Z,90.02
2018-12-12T15:32:04.120Z,90.51
2018-12-12T15:34:42.331Z,91.29
2018-12-12T15:37:12.267Z,90.50
2018-12-12T15:39:45.361Z,89.59
2018-12-12T15:42:22.237Z,89.74
2018-12-12T15:44:57.036Z,90.21
2018-12-12T15:47:31.965Z,90.92
2018-12-12T15:50:08.116Z,90.68
2018-12-12T15:52:45.058Z,90.76
2018-12-12T15:55:17.990Z,91.13
2018-12-12T15:57:50.193Z,91.06
2018-12-12T16:00:25.130Z,90.39
2018-12-12T16:02:58.306Z,91.92
2018-12-12T16:05:34.880Z,93.46
2018-12-12T16:08:11.648Z,92.37
2018-12-12T16:10:51.236Z,90.51
2018-12-12T16:16:20.927Z,90.79
2018-12-12T16:18:53.943Z,90.22
2018-12-12T16:21:29.977Z,89.12
2018-12-12T16:24:02.523Z,88.59
2018-12-12T16:26:35.379Z,87.70
2018-12-12T16:29:08.368Z,88.83
2018-12-12T16:31:41.259Z,89.39
2018-12-12T16:34:17.299Z,88.94
2018-12-12T16:36:51.288Z,89.09
2018-12-12T16:39:24.794Z,91.63
2018-12-12T16:41:57.620Z,92.27
2018-12-12T16:44:37.425Z,92.13
2018-12-12T16:47:13.808Z,90.65
2018-12-12T16:49:46.585Z,88.34
2018-12-12T16:52:23.461Z,87.86
2018-12-12T16:54:59.519Z,88.23
2018-12-12T16:57:35.574Z,88.45
2018-12-12T17:00:08.588Z,88.07
2018-12-12T17:02:41.474Z,88.08
2018-12-12T17:05:14.143Z,88.77
2018-12-12T17:07:47.033Z,88.66
2018-12-12T17:10:19.120Z,88.71
2018-12-12T17:12:58.632Z,88.45
2018-12-12T17:15:31.277Z,88.90
2018-12-12T17:18:04.123Z,88.17
2018-12-12T17:20:43.516Z,87.96
2018-12-12T17:23:19.975Z,88.33
2018-12-12T17:25:56.923Z,88.64
2018-12-12T17:28:33.876Z,88.21
2018-12-12T17:31:13.541Z,88.66
2018-12-12T17:33:46.583Z,88.78
2018-12-12T17:36:19.639Z,88.66
2018-12-12T17:38:52.507Z,88.83
2018-12-12T17:41:29.499Z,89.60
2018-12-12T17:44:01.577Z,90.06
2018-12-12T17:46:34.604Z,89.19
2018-12-12T17:49:08.744Z,88.71
2018-12-12T17:51:43.343Z,88.93
2018-12-12T17:54:16.068Z,88.31
2018-12-12T17:56:48.956Z,88.60
2018-12-12T17:59:23.620Z,88.90
2018-12-12T18:01:56.607Z,88.99
2018-12-12T18:04:29.580Z,90.91
2018-12-12T18:07:02.300Z,92.37
2018-12-12T18:09:37.218Z,89.65
2018-12-12T18:12:12.194Z,88.61
2018-12-12T18:14:46.789Z,89.32
2018-12-12T18:17:23.701Z,89.45
2018-12-12T18:22:25.368Z,90.61
2018-12-12T18:24:55.432Z,91.85
2018-12-12T18:27:28.287Z,91.81
2018-12-12T18:29:58.195Z,91.51
2018-12-12T18:32:28.235Z,87.35
2018-12-12T18:35:01.744Z,86.82
2018-12-12T18:37:31.810Z,88.26
2018-12-12T18:40:04.775Z,90.91
2018-12-12T18:42:34.696Z,88.11
2018-12-12T18:45:07.489Z,87.40
2018-12-12T18:47:39.926Z,87.73
2018-12-12T18:50:09.821Z,87.96
2018-12-12T18:52:40.111Z,89.13
2018-12-12T18:55:16.239Z,89.38
2018-12-12T18:57:48.889Z,88.44
2018-12-12T19:00:20.931Z,88.47
2018-12-12T19:02:56.983Z,87.74
2018-12-12T19:05:33.065Z,87.54
2018-12-12T19:08:05.140Z,87.43
2018-12-12T19:10:38.144Z,87.71
2018-12-12T19:13:12.152Z,87.40
2018-12-12T19:15:45.063Z,87.53
2018-12-12T19:18:17.998Z,87.38
2018-12-12T19:23:16.839Z,87.35
2018-12-12T19:25:50.638Z,87.49
2018-12-12T19:28:25.412Z,87.35
2018-12-12T19:30:57.644Z,87.12
2018-12-12T19:33:30.223Z,87.49
2018-12-12T19:36:03.032Z,87.09
2018-12-12T19:38:35.066Z,87.33
2018-12-12T19:41:10.070Z,87.39
2018-12-12T19:43:46.437Z,86.97
2018-12-12T19:46:19.215Z,87.29
2018-12-12T19:48:51.620Z,89.15
2018-12-12T19:51:26.452Z,91.33
2018-12-12T19:53:58.619Z,89.12
2018-12-12T19:56:30.772Z,88.28
2018-12-12T19:59:00.753Z,91.03
2018-12-12T20:01:33.519Z,90.78
2018-12-12T20:04:06.636Z,90.77
2018-12-12T20:06:39.444Z,88.14
2018-12-12T20:09:09.436Z,87.87
2018-12-12T20:11:44.100Z,88.22
2018-12-12T20:14:16.988Z,87.55
2018-12-12T20:16:49.118Z,87.34
2018-12-12T20:19:21.957Z,87.03
2018-12-12T20:21:51.965Z,86.73
2018-12-12T20:24:24.778Z,89.16
2018-12-12T20:26:57.672Z,90.82
2018-12-12T20:29:27.848Z,90.71
2018-12-12T20:31:57.661Z,91.10
2018-12-12T20:34:30.394Z,91.13
2018-12-12T20:37:03.118Z,90.91
2018-12-12T20:39:35.893Z,88.38
2018-12-12T20:42:08.511Z,86.24
2018-12-12T20:44:43.656Z,86.92
2018-12-12T20:47:16.670Z,87.99
2018-12-12T20:49:49.686Z,89.34
2018-12-12T20:52:22.423Z,87.33
2018-12-12T20:54:55.326Z,86.33
2018-12-12T20:57:25.399Z,87.14
2018-12-12T20:59:58.307Z,87.20
2018-12-12T21:02:31.432Z,87.40
2018-12-12T21:05:08.336Z,86.79
2018-12-12T21:07:42.455Z,87.28
2018-12-12T21:10:15.123Z,87.53
2018-12-12T21:12:47.723Z,87.14
2018-12-12T21:15:23.785Z,87.28
2018-12-12T21:17:53.972Z,87.13
2018-12-12T21:20:26.453Z,86.96
2018-12-12T21:22:59.541Z,87.25
2018-12-12T21:25:36.659Z,86.84
2018-12-12T21:28:06.705Z,87.07
2018-12-12T21:30:38.840Z,87.61
2018-12-12T21:33:11.116Z,87.03
2018-12-12T21:35:40.972Z,89.13
2018-12-12T21:38:13.128Z,90.89
2018-12-12T21:40:45.889Z,89.95
2018-12-12T21:43:18.464Z,90.23
2018-12-12T21:45:51.452Z,90.14
2018-12-12T21:48:24.242Z,89.23
2018-12-12T21:50:56.816Z,89.54
2018-12-12T21:53:26.909Z,88.56
2018-12-12T21:55:59.671Z,88.62
2018-12-12T21:58:29.872Z,89.21
2018-12-12T22:01:02.502Z,89.34
2018-12-12T22:03:35.413Z,88.32
2018-12-12T22:06:07.643Z,88.70
2018-12-12T22:08:44.153Z,89.60
2018-12-12T22:11:14.510Z,85.54
2018-12-12T22:13:47.102Z,86.49
2018-12-12T22:16:19.924Z,89.72
2018-12-12T22:18:52.848Z,90.00
2018-12-12T22:21:25.861Z,89.67
2018-12-12T22:24:00.731Z,89.20
2018-12-12T22:26:30.767Z,86.76
2018-12-12T22:29:03.414Z,86.59
2018-12-12T22:31:33.393Z,86.13
2018-12-12T22:34:06.137Z,86.22
2018-12-12T22:36:36.264Z,85.77
2018-12-12T22:39:08.721Z,86.20
2018-12-12T22:41:38.851Z,85.98
2018-12-12T22:44:11.516Z,86.50
2018-12-12T22:46:41.713Z,85.89
2018-12-12T22:49:14.491Z,86.23
2018-12-12T22:51:44.588Z,86.09
2018-12-12T22:54:17.345Z,86.32
2018-12-12T22:56:50.252Z,86.57
2018-12-12T22:59:22.583Z,90.02
2018-12-12T23:01:55.084Z,89.45
2018-12-12T23:04:28.026Z,89.20
2018-12-12T23:06:58.055Z,89.07
2018-12-12T23:09:31.114Z,88.94
2018-12-12T23:12:04.534Z,85.57
2018-12-12T23:14:34.511Z,86.70
2018-12-12T23:17:07.473Z,89.38
2018-12-12T23:19:40.501Z,88.72
2018-12-12T23:22:13.413Z,86.01
2018-12-12T23:24:43.699Z,88.56
2018-12-12T23:27:13.577Z,89.04
2018-12-12T23:29:45.742Z,89.12
2018-12-12T23:32:18.705Z,87.87
2018-12-12T23:34:51.685Z,88.47
2018-12-12T23:37:23.837Z,88.49
2018-12-12T23:39:56.687Z,88.52
2018-12-12T23:42:29.578Z,85.85
2018-12-12T23:44:59.475Z,85.78
2018-12-12T23:47:36.428Z,85.94
2018-12-12T23:50:06.554Z,88.84
2018-12-12T23:52:42.863Z,89.96
2018-12-12T23:55:13.083Z,87.77
2018-12-12T23:57:43.229Z,89.47
